sensor_id;sensor_type;location;lat;lon;timestamp;temperature;humidity
1225;DHT22;602;48.000;7.840;2023-02-01T00:00:30;6.90;99.90
1225;DHT22;602;48.000;7.840;2023-02-01T00:02:58;6.90;99.90
1225;DHT22;602;48.000;7.840;2023-02-01T00:05:25;6.90;99.90
1225;DHT22;602;48.000;7.840;2023-02-01T00:07:52;6.90;99.90
1225;DHT22;602;48.000;7.840;2023-02-01T00:10:19;6.80;99.90
1225;DHT22;602;48.000;7.840;2023-02-01T00:12:46;6.80;99.90
1225;DHT22;602;48.000;7.840;2023-02-01T00:15:14;6.80;99.90
1225;DHT22;602;48.000;7.840;2023-02-01T00:17:41;6.80;99.90
1225;DHT22;602;48.000;7.840;2023-02-01T00:20:09;6.80;99.90
1225;DHT22;602;48.000;7.840;2023-02-01T00:22:37;6.70;99.90
1225;DHT22;602;48.000;7.840;2023-02-01T00:25:04;6.70;99.90
1225;DHT22;602;48.000;7.840;2023-02-01T00:27:31;6.70;99.90
1225;DHT22;602;48.000;7.840;2023-02-01T00:29:58;6.70;99.90
1225;DHT22;602;48.000;7.840;2023-02-01T00:32:27;6.80;99.90
1225;DHT22;602;48.000;7.840;2023-02-01T00:34:53;6.80;99.90
1225;DHT22;602;48.000;7.840;2023-02-01T00:37:20;6.80;99.90
1225;DHT22;602;48.000;7.840;2023-02-01T00:39:48;6.80;99.90
1225;DHT22;602;48.000;7.840;2023-02-01T00:42:15;6.80;99.90
1225;DHT22;602;48.000;7.840;2023-02-01T00:44:42;6.80;99.90
1225;DHT22;602;48.000;7.840;2023-02-01T00:47:09;6.80;99.90
1225;DHT22;602;48.000;7.840;2023-02-01T00:49:38;6.80;99.90
1225;DHT22;602;48.000;7.840;2023-02-01T00:52:04;6.90;99.90
1225;DHT22;602;48.000;7.840;2023-02-01T00:54:32;6.80;99.90
1225;DHT22;602;48.000;7.840;2023-02-01T00:57:00;6.90;99.90
1225;DHT22;602;48.000;7.840;2023-02-01T00:59:27;6.90;99.90
1225;DHT22;602;48.000;7.840;2023-02-01T01:01:53;6.90;99.90
1225;DHT22;602;48.000;7.840;2023-02-01T01:04:20;6.80;99.90
1225;DHT22;602;48.000;7.840;2023-02-01T01:06:49;6.70;99.90
1225;DHT22;602;48.000;7.840;2023-02-01T01:09:16;6.70;99.90
1225;DHT22;602;48.000;7.840;2023-02-01T01:11:43;6.70;99.90
1225;DHT22;602;48.000;7.840;2023-02-01T01:14:10;6.70;99.90
1225;DHT22;602;48.000;7.840;2023-02-01T01:16:37;6.60;99.90
1225;DHT22;602;48.000;7.840;2023-02-01T01:19:04;6.60;99.90
1225;DHT22;602;48.000;7.840;2023-02-01T01:21:32;6.60;99.90
1225;DHT22;602;48.000;7.840;2023-02-01T01:24:00;6.60;99.90
1225;DHT22;602;48.000;7.840;2023-02-01T01:26:28;6.50;99.90
1225;DHT22;602;48.000;7.840;2023-02-01T01:28:56;6.60;99.90
1225;DHT22;602;48.000;7.840;2023-02-01T01:31:24;6.60;99.90
1225;DHT22;602;48.000;7.840;2023-02-01T01:33:52;6.60;99.90
1225;DHT22;602;48.000;7.840;2023-02-01T01:36:20;6.60;99.90
1225;DHT22;602;48.000;7.840;2023-02-01T01:38:47;6.50;99.90
1225;DHT22;602;48.000;7.840;2023-02-01T01:41:17;6.50;99.90
1225;DHT22;602;48.000;7.840;2023-02-01T01:43:51;6.60;99.90
1225;DHT22;602;48.000;7.840;2023-02-01T01:46:20;6.50;99.90
1225;DHT22;602;48.000;7.840;2023-02-01T01:48:49;6.60;99.90
1225;DHT22;602;48.000;7.840;2023-02-01T01:51:20;6.60;99.90
1225;DHT22;602;48.000;7.840;2023-02-01T01:53:53;6.50;99.90
1225;DHT22;602;48.000;7.840;2023-02-01T01:56:22;6.50;99.90
1225;DHT22;602;48.000;7.840;2023-02-01T01:58:49;6.50;99.90
1225;DHT22;602;48.000;7.840;2023-02-01T02:01:16;6.50;99.90
1225;DHT22;602;48.000;7.840;2023-02-01T02:03:44;6.50;99.90
1225;DHT22;602;48.000;7.840;2023-02-01T02:06:17;6.50;99.90
1225;DHT22;602;48.000;7.840;2023-02-01T02:08:46;6.60;99.90
1225;DHT22;602;48.000;7.840;2023-02-01T02:11:16;6.60;99.90
1225;DHT22;602;48.000;7.840;2023-02-01T02:13:48;6.50;99.90
1225;DHT22;602;48.000;7.840;2023-02-01T02:16:28;6.60;99.90
1225;DHT22;602;48.000;7.840;2023-02-01T02:19:13;6.60;99.90
1225;DHT22;602;48.000;7.840;2023-02-01T02:21:59;6.60;99.90
1225;DHT22;602;48.000;7.840;2023-02-01T02:24:47;6.60;99.90
1225;DHT22;602;48.000;7.840;2023-02-01T02:27:23;6.50;99.90
1225;DHT22;602;48.000;7.840;2023-02-01T02:36:17;6.40;99.90
1225;DHT22;602;48.000;7.840;2023-02-01T02:38:50;6.50;99.90
1225;DHT22;602;48.000;7.840;2023-02-01T02:41:24;6.50;99.90
1225;DHT22;602;48.000;7.840;2023-02-01T02:44:15;6.40;99.90
1225;DHT22;602;48.000;7.840;2023-02-01T02:47:11;6.50;99.90
1225;DHT22;602;48.000;7.840;2023-02-01T02:49:58;6.50;99.90
1225;DHT22;602;48.000;7.840;2023-02-01T02:52:51;6.60;99.90
1225;DHT22;602;48.000;7.840;2023-02-01T02:55:36;6.60;99.90
1225;DHT22;602;48.000;7.840;2023-02-01T02:58:06;6.60;99.90
1225;DHT22;602;48.000;7.840;2023-02-01T03:00:51;6.50;99.90
1225;DHT22;602;48.000;7.840;2023-02-01T03:03:38;6.60;99.90
1225;DHT22;602;48.000;7.840;2023-02-01T03:06:24;6.50;99.90
1225;DHT22;602;48.000;7.840;2023-02-01T03:08:53;6.50;99.90
1225;DHT22;602;48.000;7.840;2023-02-01T03:11:24;6.50;99.90
1225;DHT22;602;48.000;7.840;2023-02-01T03:14:13;6.50;99.90
1225;DHT22;602;48.000;7.840;2023-02-01T03:16:43;6.40;99.90
1225;DHT22;602;48.000;7.840;2023-02-01T03:19:16;6.50;99.90
1225;DHT22;602;48.000;7.840;2023-02-01T03:21:49;6.50;99.90
1225;DHT22;602;48.000;7.840;2023-02-01T03:24:21;6.50;99.90
1225;DHT22;602;48.000;7.840;2023-02-01T03:26:51;6.50;99.90
1225;DHT22;602;48.000;7.840;2023-02-01T03:29:23;6.50;99.90
1225;DHT22;602;48.000;7.840;2023-02-01T03:31:51;6.50;99.90
1225;DHT22;602;48.000;7.840;2023-02-01T03:34:18;6.50;99.90
1225;DHT22;602;48.000;7.840;2023-02-01T03:36:49;6.60;99.90
1225;DHT22;602;48.000;7.840;2023-02-01T03:39:21;6.60;99.90
1225;DHT22;602;48.000;7.840;2023-02-01T03:41:52;6.60;99.90
1225;DHT22;602;48.000;7.840;2023-02-01T03:44:22;6.50;99.90
1225;DHT22;602;48.000;7.840;2023-02-01T03:46:54;6.50;99.90
1225;DHT22;602;48.000;7.840;2023-02-01T03:49:25;6.50;99.90
1225;DHT22;602;48.000;7.840;2023-02-01T03:51:55;6.40;99.90
1225;DHT22;602;48.000;7.840;2023-02-01T03:54:24;6.40;99.90
1225;DHT22;602;48.000;7.840;2023-02-01T03:56:52;6.40;99.90
1225;DHT22;602;48.000;7.840;2023-02-01T03:59:20;6.40;99.90
1225;DHT22;602;48.000;7.840;2023-02-01T04:01:47;6.30;99.90
1225;DHT22;602;48.000;7.840;2023-02-01T04:04:14;6.40;99.90
1225;DHT22;602;48.000;7.840;2023-02-01T04:06:45;6.40;99.90
1225;DHT22;602;48.000;7.840;2023-02-01T04:09:13;6.40;99.90
1225;DHT22;602;48.000;7.840;2023-02-01T04:11:40;6.30;99.90
1225;DHT22;602;48.000;7.840;2023-02-01T04:14:07;6.20;99.90
1225;DHT22;602;48.000;7.840;2023-02-01T04:16:35;6.20;99.90
1225;DHT22;602;48.000;7.840;2023-02-01T04:19:02;6.20;99.90
1225;DHT22;602;48.000;7.840;2023-02-01T04:21:29;6.10;99.90
1225;DHT22;602;48.000;7.840;2023-02-01T04:23:56;6.10;99.90
1225;DHT22;602;48.000;7.840;2023-02-01T04:26:24;6.10;99.90
1225;DHT22;602;48.000;7.840;2023-02-01T04:28:51;6.20;99.90
1225;DHT22;602;48.000;7.840;2023-02-01T04:31:19;6.20;99.90
1225;DHT22;602;48.000;7.840;2023-02-01T04:33:51;6.20;99.90
1225;DHT22;602;48.000;7.840;2023-02-01T04:36:19;6.20;99.90
1225;DHT22;602;48.000;7.840;2023-02-01T04:38:47;6.20;99.90
1225;DHT22;602;48.000;7.840;2023-02-01T04:41:14;6.10;99.90
1225;DHT22;602;48.000;7.840;2023-02-01T04:43:45;6.10;99.90
1225;DHT22;602;48.000;7.840;2023-02-01T04:46:12;6.10;99.90
1225;DHT22;602;48.000;7.840;2023-02-01T04:48:39;6.00;99.90
1225;DHT22;602;48.000;7.840;2023-02-01T04:51:06;6.00;99.90
1225;DHT22;602;48.000;7.840;2023-02-01T04:53:33;6.00;99.90
1225;DHT22;602;48.000;7.840;2023-02-01T04:56:00;6.00;99.90
1225;DHT22;602;48.000;7.840;2023-02-01T04:58:27;6.00;99.90
1225;DHT22;602;48.000;7.840;2023-02-01T05:00:56;6.10;99.90
1225;DHT22;602;48.000;7.840;2023-02-01T05:03:23;6.10;99.90
1225;DHT22;602;48.000;7.840;2023-02-01T05:05:50;6.00;99.90
1225;DHT22;602;48.000;7.840;2023-02-01T05:08:19;6.00;99.90
1225;DHT22;602;48.000;7.840;2023-02-01T05:10:47;6.00;99.90
1225;DHT22;602;48.000;7.840;2023-02-01T05:13:14;6.00;99.90
1225;DHT22;602;48.000;7.840;2023-02-01T05:16:00;6.00;99.90
1225;DHT22;602;48.000;7.840;2023-02-01T05:18:27;6.00;99.90
1225;DHT22;602;48.000;7.840;2023-02-01T05:20:54;5.90;99.90
1225;DHT22;602;48.000;7.840;2023-02-01T05:23:21;5.90;99.90
1225;DHT22;602;48.000;7.840;2023-02-01T05:25:48;5.90;99.90
1225;DHT22;602;48.000;7.840;2023-02-01T05:28:15;5.90;99.90
1225;DHT22;602;48.000;7.840;2023-02-01T05:30:42;6.00;99.90
1225;DHT22;602;48.000;7.840;2023-02-01T05:33:10;5.90;99.90
1225;DHT22;602;48.000;7.840;2023-02-01T05:35:37;5.80;99.90
1225;DHT22;602;48.000;7.840;2023-02-01T05:38:04;5.90;99.90
1225;DHT22;602;48.000;7.840;2023-02-01T05:40:31;5.80;99.90
1225;DHT22;602;48.000;7.840;2023-02-01T05:42:58;5.80;99.90
1225;DHT22;602;48.000;7.840;2023-02-01T05:45:25;5.80;99.90
1225;DHT22;602;48.000;7.840;2023-02-01T05:47:52;5.80;99.90
1225;DHT22;602;48.000;7.840;2023-02-01T05:50:20;5.80;99.90
1225;DHT22;602;48.000;7.840;2023-02-01T05:52:47;5.70;99.90
1225;DHT22;602;48.000;7.840;2023-02-01T05:55:14;5.70;99.90
1225;DHT22;602;48.000;7.840;2023-02-01T05:57:41;5.70;99.90
1225;DHT22;602;48.000;7.840;2023-02-01T06:00:09;5.70;99.90
1225;DHT22;602;48.000;7.840;2023-02-01T06:02:36;5.70;99.90
1225;DHT22;602;48.000;7.840;2023-02-01T06:05:03;5.70;99.90
1225;DHT22;602;48.000;7.840;2023-02-01T06:07:32;5.70;99.90
1225;DHT22;602;48.000;7.840;2023-02-01T06:09:59;5.60;99.90
1225;DHT22;602;48.000;7.840;2023-02-01T06:12:26;5.70;99.90
1225;DHT22;602;48.000;7.840;2023-02-01T06:17:57;5.60;99.90
1225;DHT22;602;48.000;7.840;2023-02-01T06:20:24;5.60;99.90
1225;DHT22;602;48.000;7.840;2023-02-01T06:22:52;5.60;99.90
1225;DHT22;602;48.000;7.840;2023-02-01T06:25:20;5.60;99.90
1225;DHT22;602;48.000;7.840;2023-02-01T06:27:47;5.60;99.90
1225;DHT22;602;48.000;7.840;2023-02-01T06:30:14;5.60;99.90
1225;DHT22;602;48.000;7.840;2023-02-01T06:32:42;5.60;99.90
1225;DHT22;602;48.000;7.840;2023-02-01T06:35:09;5.70;99.90
1225;DHT22;602;48.000;7.840;2023-02-01T06:37:41;5.70;99.90
1225;DHT22;602;48.000;7.840;2023-02-01T06:40:11;5.80;99.90
1225;DHT22;602;48.000;7.840;2023-02-01T06:42:38;5.70;99.90
1225;DHT22;602;48.000;7.840;2023-02-01T06:45:05;5.80;99.90
1225;DHT22;602;48.000;7.840;2023-02-01T06:47:33;5.80;99.90
1225;DHT22;602;48.000;7.840;2023-02-01T06:50:00;5.80;99.90
1225;DHT22;602;48.000;7.840;2023-02-01T06:52:27;5.80;99.90
1225;DHT22;602;48.000;7.840;2023-02-01T06:54:57;5.90;99.90
1225;DHT22;602;48.000;7.840;2023-02-01T06:57:25;5.90;99.90
1225;DHT22;602;48.000;7.840;2023-02-01T06:59:55;6.00;99.90
1225;DHT22;602;48.000;7.840;2023-02-01T07:02:24;6.00;99.90
1225;DHT22;602;48.000;7.840;2023-02-01T07:04:51;6.00;99.90
1225;DHT22;602;48.000;7.840;2023-02-01T07:07:18;6.00;99.90
1225;DHT22;602;48.000;7.840;2023-02-01T07:09:48;6.00;99.90
1225;DHT22;602;48.000;7.840;2023-02-01T07:12:15;6.00;99.90
1225;DHT22;602;48.000;7.840;2023-02-01T07:14:43;6.00;99.90
1225;DHT22;602;48.000;7.840;2023-02-01T07:17:10;6.00;99.90
1225;DHT22;602;48.000;7.840;2023-02-01T07:19:37;6.00;99.90
1225;DHT22;602;48.000;7.840;2023-02-01T07:22:04;6.00;99.90
1225;DHT22;602;48.000;7.840;2023-02-01T07:24:34;6.00;99.90
1225;DHT22;602;48.000;7.840;2023-02-01T07:27:01;6.00;99.90
1225;DHT22;602;48.000;7.840;2023-02-01T07:29:28;6.00;99.90
1225;DHT22;602;48.000;7.840;2023-02-01T07:31:56;6.00;99.90
1225;DHT22;602;48.000;7.840;2023-02-01T07:34:23;5.90;99.90
1225;DHT22;602;48.000;7.840;2023-02-01T07:36:50;5.90;99.90
1225;DHT22;602;48.000;7.840;2023-02-01T07:39:17;5.90;99.90
1225;DHT22;602;48.000;7.840;2023-02-01T07:41:45;5.90;99.90
1225;DHT22;602;48.000;7.840;2023-02-01T07:44:12;6.00;99.90
1225;DHT22;602;48.000;7.840;2023-02-01T07:46:39;5.90;99.90
1225;DHT22;602;48.000;7.840;2023-02-01T07:49:07;5.80;99.90
1225;DHT22;602;48.000;7.840;2023-02-01T07:51:34;5.80;99.90
1225;DHT22;602;48.000;7.840;2023-02-01T07:54:01;5.80;99.90
1225;DHT22;602;48.000;7.840;2023-02-01T07:56:28;5.80;99.90
1225;DHT22;602;48.000;7.840;2023-02-01T07:58:55;5.80;99.90
1225;DHT22;602;48.000;7.840;2023-02-01T08:01:26;5.90;99.90
1225;DHT22;602;48.000;7.840;2023-02-01T08:03:55;6.00;99.90
1225;DHT22;602;48.000;7.840;2023-02-01T08:06:24;6.00;99.90
1225;DHT22;602;48.000;7.840;2023-02-01T08:08:52;6.00;99.90
1225;DHT22;602;48.000;7.840;2023-02-01T08:11:21;6.10;99.90
1225;DHT22;602;48.000;7.840;2023-02-01T08:13:48;6.20;99.90
1225;DHT22;602;48.000;7.840;2023-02-01T08:16:16;6.30;99.90
1225;DHT22;602;48.000;7.840;2023-02-01T08:18:46;6.40;99.90
1225;DHT22;602;48.000;7.840;2023-02-01T08:21:16;6.40;99.90
1225;DHT22;602;48.000;7.840;2023-02-01T08:23:45;6.50;99.90
1225;DHT22;602;48.000;7.840;2023-02-01T08:26:14;6.40;99.90
1225;DHT22;602;48.000;7.840;2023-02-01T08:28:43;6.40;99.90
1225;DHT22;602;48.000;7.840;2023-02-01T08:31:12;6.40;99.90
1225;DHT22;602;48.000;7.840;2023-02-01T08:33:40;6.40;99.90
1225;DHT22;602;48.000;7.840;2023-02-01T08:36:09;6.50;99.90
1225;DHT22;602;48.000;7.840;2023-02-01T08:38:37;6.40;99.90
1225;DHT22;602;48.000;7.840;2023-02-01T08:41:07;6.40;99.90
1225;DHT22;602;48.000;7.840;2023-02-01T08:43:34;6.40;99.90
1225;DHT22;602;48.000;7.840;2023-02-01T08:46:02;6.40;99.90
1225;DHT22;602;48.000;7.840;2023-02-01T08:48:29;6.40;99.90
1225;DHT22;602;48.000;7.840;2023-02-01T08:50:57;6.40;99.90
1225;DHT22;602;48.000;7.840;2023-02-01T08:53:24;6.50;99.90
1225;DHT22;602;48.000;7.840;2023-02-01T08:55:51;6.50;99.90
1225;DHT22;602;48.000;7.840;2023-02-01T08:58:19;6.40;99.90
1225;DHT22;602;48.000;7.840;2023-02-01T09:00:47;6.50;99.90
1225;DHT22;602;48.000;7.840;2023-02-01T09:03:15;6.40;99.90
1225;DHT22;602;48.000;7.840;2023-02-01T09:05:42;6.40;99.90
1225;DHT22;602;48.000;7.840;2023-02-01T09:08:10;6.40;99.90
1225;DHT22;602;48.000;7.840;2023-02-01T09:10:38;6.40;99.90
1225;DHT22;602;48.000;7.840;2023-02-01T09:13:06;6.40;99.90
1225;DHT22;602;48.000;7.840;2023-02-01T09:15:35;6.40;99.90
1225;DHT22;602;48.000;7.840;2023-02-01T09:18:03;6.40;99.90
1225;DHT22;602;48.000;7.840;2023-02-01T09:20:30;6.50;99.90
1225;DHT22;602;48.000;7.840;2023-02-01T09:22:57;6.50;99.90
1225;DHT22;602;48.000;7.840;2023-02-01T09:25:25;6.50;99.90
1225;DHT22;602;48.000;7.840;2023-02-01T09:27:52;6.50;99.90
1225;DHT22;602;48.000;7.840;2023-02-01T09:30:19;6.50;99.90
1225;DHT22;602;48.000;7.840;2023-02-01T09:32:47;6.60;99.90
1225;DHT22;602;48.000;7.840;2023-02-01T09:35:14;6.70;99.90
1225;DHT22;602;48.000;7.840;2023-02-01T09:37:41;6.70;99.90
1225;DHT22;602;48.000;7.840;2023-02-01T09:40:12;6.60;99.90
1225;DHT22;602;48.000;7.840;2023-02-01T09:42:55;6.70;99.90
1225;DHT22;602;48.000;7.840;2023-02-01T09:45:30;6.70;99.90
1225;DHT22;602;48.000;7.840;2023-02-01T09:48:03;6.70;99.90
1225;DHT22;602;48.000;7.840;2023-02-01T09:50:37;6.70;99.90
1225;DHT22;602;48.000;7.840;2023-02-01T09:53:09;6.60;99.90
1225;DHT22;602;48.000;7.840;2023-02-01T09:55:40;6.70;99.90
1225;DHT22;602;48.000;7.840;2023-02-01T09:58:13;6.80;99.90
1225;DHT22;602;48.000;7.840;2023-02-01T10:00:50;6.90;99.90
1225;DHT22;602;48.000;7.840;2023-02-01T10:03:19;7.10;99.90
1225;DHT22;602;48.000;7.840;2023-02-01T10:06:06;7.20;99.90
1225;DHT22;602;48.000;7.840;2023-02-01T10:08:44;7.20;99.90
1225;DHT22;602;48.000;7.840;2023-02-01T10:11:23;7.20;99.90
1225;DHT22;602;48.000;7.840;2023-02-01T10:13:58;7.10;99.90
1225;DHT22;602;48.000;7.840;2023-02-01T10:16:37;7.20;99.90
1225;DHT22;602;48.000;7.840;2023-02-01T10:19:32;7.10;99.90
1225;DHT22;602;48.000;7.840;2023-02-01T10:22:03;7.20;99.90
1225;DHT22;602;48.000;7.840;2023-02-01T10:24:39;7.30;99.90
1225;DHT22;602;48.000;7.840;2023-02-01T10:27:17;7.30;99.90
1225;DHT22;602;48.000;7.840;2023-02-01T10:29:47;7.20;99.90
1225;DHT22;602;48.000;7.840;2023-02-01T10:32:17;7.30;99.90
1225;DHT22;602;48.000;7.840;2023-02-01T10:34:51;7.40;99.90
1225;DHT22;602;48.000;7.840;2023-02-01T10:37:25;7.40;99.90
1225;DHT22;602;48.000;7.840;2023-02-01T10:39:55;7.40;99.90
1225;DHT22;602;48.000;7.840;2023-02-01T10:42:25;7.50;99.90
1225;DHT22;602;48.000;7.840;2023-02-01T10:44:54;7.50;99.90
1225;DHT22;602;48.000;7.840;2023-02-01T10:47:23;7.40;99.90
1225;DHT22;602;48.000;7.840;2023-02-01T10:49:56;7.30;99.90
1225;DHT22;602;48.000;7.840;2023-02-01T10:52:35;7.30;99.90
1225;DHT22;602;48.000;7.840;2023-02-01T10:55:32;7.40;99.90
1225;DHT22;602;48.000;7.840;2023-02-01T10:58:01;7.40;99.90
1225;DHT22;602;48.000;7.840;2023-02-01T11:00:37;7.40;99.90
1225;DHT22;602;48.000;7.840;2023-02-01T11:03:33;7.40;99.90
1225;DHT22;602;48.000;7.840;2023-02-01T11:06:04;7.40;99.90
1225;DHT22;602;48.000;7.840;2023-02-01T11:08:42;7.40;99.90
1225;DHT22;602;48.000;7.840;2023-02-01T11:11:12;7.50;99.90
1225;DHT22;602;48.000;7.840;2023-02-01T11:13:40;7.50;99.90
1225;DHT22;602;48.000;7.840;2023-02-01T11:16:12;7.50;99.90
1225;DHT22;602;48.000;7.840;2023-02-01T11:18:40;7.60;99.90
1225;DHT22;602;48.000;7.840;2023-02-01T11:21:10;7.60;99.90
1225;DHT22;602;48.000;7.840;2023-02-01T11:23:41;7.70;99.90
1225;DHT22;602;48.000;7.840;2023-02-01T11:26:13;7.70;99.90
1225;DHT22;602;48.000;7.840;2023-02-01T11:28:46;7.80;99.90
1225;DHT22;602;48.000;7.840;2023-02-01T11:31:17;7.80;99.90
1225;DHT22;602;48.000;7.840;2023-02-01T11:33:50;7.80;99.90
1225;DHT22;602;48.000;7.840;2023-02-01T11:36:22;7.90;99.90
1225;DHT22;602;48.000;7.840;2023-02-01T11:38:54;7.80;99.90
1225;DHT22;602;48.000;7.840;2023-02-01T11:41:23;7.80;99.90
1225;DHT22;602;48.000;7.840;2023-02-01T11:43:55;8.00;99.90
1225;DHT22;602;48.000;7.840;2023-02-01T11:46:28;8.00;99.90
1225;DHT22;602;48.000;7.840;2023-02-01T11:48:56;8.00;99.90
1225;DHT22;602;48.000;7.840;2023-02-01T11:51:41;8.10;99.90
1225;DHT22;602;48.000;7.840;2023-02-01T11:54:22;8.10;99.90
1225;DHT22;602;48.000;7.840;2023-02-01T11:57:15;8.20;99.90
1225;DHT22;602;48.000;7.840;2023-02-01T12:00:20;8.30;99.90
1225;DHT22;602;48.000;7.840;2023-02-01T12:06:50;8.50;99.90
1225;DHT22;602;48.000;7.840;2023-02-01T12:09:38;8.50;99.90
1225;DHT22;602;48.000;7.840;2023-02-01T12:12:22;8.50;99.90
1225;DHT22;602;48.000;7.840;2023-02-01T12:15:27;8.60;99.90
1225;DHT22;602;48.000;7.840;2023-02-01T12:21:36;8.50;99.90
1225;DHT22;602;48.000;7.840;2023-02-01T12:24:21;8.40;99.90
1225;DHT22;602;48.000;7.840;2023-02-01T12:27:04;8.40;99.90
1225;DHT22;602;48.000;7.840;2023-02-01T12:32:53;8.40;99.90
1225;DHT22;602;48.000;7.840;2023-02-01T12:35:38;8.40;99.90
1225;DHT22;602;48.000;7.840;2023-02-01T12:38:31;8.50;99.90
1225;DHT22;602;48.000;7.840;2023-02-01T12:41:18;8.40;99.90
1225;DHT22;602;48.000;7.840;2023-02-01T12:43:51;8.50;99.90
1225;DHT22;602;48.000;7.840;2023-02-01T12:46:26;8.40;99.90
1225;DHT22;602;48.000;7.840;2023-02-01T12:48:59;8.20;99.90
1225;DHT22;602;48.000;7.840;2023-02-01T12:51:29;8.20;99.90
1225;DHT22;602;48.000;7.840;2023-02-01T12:54:02;8.20;99.90
1225;DHT22;602;48.000;7.840;2023-02-01T12:56:40;8.20;99.90
1225;DHT22;602;48.000;7.840;2023-02-01T12:59:16;8.10;99.90
1225;DHT22;602;48.000;7.840;2023-02-01T13:01:49;8.20;99.90
1225;DHT22;602;48.000;7.840;2023-02-01T13:04:26;8.10;99.90
1225;DHT22;602;48.000;7.840;2023-02-01T13:07:01;8.10;99.90
1225;DHT22;602;48.000;7.840;2023-02-01T13:09:34;8.20;99.90
1225;DHT22;602;48.000;7.840;2023-02-01T13:12:11;8.20;99.90
1225;DHT22;602;48.000;7.840;2023-02-01T13:14:43;8.20;99.90
1225;DHT22;602;48.000;7.840;2023-02-01T13:17:14;8.20;99.90
1225;DHT22;602;48.000;7.840;2023-02-01T13:19:44;8.30;99.90
1225;DHT22;602;48.000;7.840;2023-02-01T13:22:16;8.30;99.90
1225;DHT22;602;48.000;7.840;2023-02-01T13:24:46;8.30;99.90
1225;DHT22;602;48.000;7.840;2023-02-01T13:27:16;8.20;99.90
1225;DHT22;602;48.000;7.840;2023-02-01T13:29:49;8.20;99.90
1225;DHT22;602;48.000;7.840;2023-02-01T13:32:40;8.30;99.90
1225;DHT22;602;48.000;7.840;2023-02-01T13:35:29;8.20;99.90
1225;DHT22;602;48.000;7.840;2023-02-01T13:38:14;8.20;99.90
1225;DHT22;602;48.000;7.840;2023-02-01T13:40:51;8.20;99.90
1225;DHT22;602;48.000;7.840;2023-02-01T13:43:28;8.20;99.90
1225;DHT22;602;48.000;7.840;2023-02-01T13:45:57;8.20;99.90
1225;DHT22;602;48.000;7.840;2023-02-01T13:48:32;8.10;99.90
1225;DHT22;602;48.000;7.840;2023-02-01T13:51:02;8.10;99.90
1225;DHT22;602;48.000;7.840;2023-02-01T13:53:31;8.10;99.90
1225;DHT22;602;48.000;7.840;2023-02-01T13:56:01;8.10;99.90
1225;DHT22;602;48.000;7.840;2023-02-01T13:58:35;8.10;99.90
1225;DHT22;602;48.000;7.840;2023-02-01T14:01:35;8.20;99.90
1225;DHT22;602;48.000;7.840;2023-02-01T14:04:04;8.20;99.90
1225;DHT22;602;48.000;7.840;2023-02-01T14:06:38;8.20;99.90
1225;DHT22;602;48.000;7.840;2023-02-01T14:09:31;8.20;99.90
1225;DHT22;602;48.000;7.840;2023-02-01T14:15:23;8.20;99.90
1225;DHT22;602;48.000;7.840;2023-02-01T14:17:51;8.10;99.90
1225;DHT22;602;48.000;7.840;2023-02-01T14:20:46;8.00;99.90
1225;DHT22;602;48.000;7.840;2023-02-01T14:23:26;8.00;99.90
1225;DHT22;602;48.000;7.840;2023-02-01T14:26:18;8.00;99.90
1225;DHT22;602;48.000;7.840;2023-02-01T14:28:50;8.00;99.90
1225;DHT22;602;48.000;7.840;2023-02-01T14:31:43;8.00;99.90
1225;DHT22;602;48.000;7.840;2023-02-01T14:34:17;8.00;99.90
1225;DHT22;602;48.000;7.840;2023-02-01T14:36:49;8.00;99.90
1225;DHT22;602;48.000;7.840;2023-02-01T14:39:35;8.00;99.90
1225;DHT22;602;48.000;7.840;2023-02-01T14:42:12;7.90;99.90
1225;DHT22;602;48.000;7.840;2023-02-01T14:44:41;7.90;99.90
1225;DHT22;602;48.000;7.840;2023-02-01T14:50:10;7.90;99.90
1225;DHT22;602;48.000;7.840;2023-02-01T14:52:40;7.90;99.90
1225;DHT22;602;48.000;7.840;2023-02-01T14:55:12;7.90;99.90
1225;DHT22;602;48.000;7.840;2023-02-01T14:57:42;7.90;99.90
1225;DHT22;602;48.000;7.840;2023-02-01T15:00:23;7.90;99.90
1225;DHT22;602;48.000;7.840;2023-02-01T15:02:53;7.90;99.90
1225;DHT22;602;48.000;7.840;2023-02-01T15:05:28;7.80;99.90
1225;DHT22;602;48.000;7.840;2023-02-01T15:08:05;7.80;99.90
1225;DHT22;602;48.000;7.840;2023-02-01T15:10:40;7.80;99.90
1225;DHT22;602;48.000;7.840;2023-02-01T15:13:19;7.80;99.90
1225;DHT22;602;48.000;7.840;2023-02-01T15:16:03;7.80;99.90
1225;DHT22;602;48.000;7.840;2023-02-01T15:18:32;7.80;99.90
1225;DHT22;602;48.000;7.840;2023-02-01T15:21:01;7.80;99.90
1225;DHT22;602;48.000;7.840;2023-02-01T15:23:28;7.80;99.90
1225;DHT22;602;48.000;7.840;2023-02-01T15:25:56;7.80;99.90
1225;DHT22;602;48.000;7.840;2023-02-01T15:28:23;7.80;99.90
1225;DHT22;602;48.000;7.840;2023-02-01T15:30:56;7.80;99.90
1225;DHT22;602;48.000;7.840;2023-02-01T15:33:23;7.80;99.90
1225;DHT22;602;48.000;7.840;2023-02-01T15:35:53;7.80;99.90
1225;DHT22;602;48.000;7.840;2023-02-01T15:38:38;7.80;99.90
1225;DHT22;602;48.000;7.840;2023-02-01T15:41:11;7.90;99.90
1225;DHT22;602;48.000;7.840;2023-02-01T15:43:42;7.80;99.90
1225;DHT22;602;48.000;7.840;2023-02-01T15:46:19;7.90;99.90
1225;DHT22;602;48.000;7.840;2023-02-01T15:48:49;7.90;99.90
1225;DHT22;602;48.000;7.840;2023-02-01T15:51:20;7.80;99.90
1225;DHT22;602;48.000;7.840;2023-02-01T15:53:51;7.80;99.90
1225;DHT22;602;48.000;7.840;2023-02-01T15:56:24;7.80;99.90
1225;DHT22;602;48.000;7.840;2023-02-01T15:58:53;7.80;99.90
1225;DHT22;602;48.000;7.840;2023-02-01T16:01:22;7.80;99.90
1225;DHT22;602;48.000;7.840;2023-02-01T16:03:54;7.80;99.90
1225;DHT22;602;48.000;7.840;2023-02-01T16:06:31;7.70;99.90
1225;DHT22;602;48.000;7.840;2023-02-01T16:09:03;7.80;99.90
1225;DHT22;602;48.000;7.840;2023-02-01T16:11:32;7.70;99.90
1225;DHT22;602;48.000;7.840;2023-02-01T16:14:00;7.70;99.90
1225;DHT22;602;48.000;7.840;2023-02-01T16:16:28;7.70;99.90
1225;DHT22;602;48.000;7.840;2023-02-01T16:18:55;7.70;99.90
1225;DHT22;602;48.000;7.840;2023-02-01T16:21:22;7.70;99.90
1225;DHT22;602;48.000;7.840;2023-02-01T16:23:51;7.50;99.90
1225;DHT22;602;48.000;7.840;2023-02-01T16:26:19;7.60;99.90
1225;DHT22;602;48.000;7.840;2023-02-01T16:28:46;7.50;99.90
1225;DHT22;602;48.000;7.840;2023-02-01T16:31:15;7.60;99.90
1225;DHT22;602;48.000;7.840;2023-02-01T16:33:46;7.50;99.90
1225;DHT22;602;48.000;7.840;2023-02-01T16:36:15;7.50;99.90
1225;DHT22;602;48.000;7.840;2023-02-01T16:38:42;7.50;99.90
1225;DHT22;602;48.000;7.840;2023-02-01T16:41:14;7.50;99.90
1225;DHT22;602;48.000;7.840;2023-02-01T16:43:41;7.50;99.90
1225;DHT22;602;48.000;7.840;2023-02-01T16:46:14;7.50;99.90
1225;DHT22;602;48.000;7.840;2023-02-01T16:48:45;7.50;99.90
1225;DHT22;602;48.000;7.840;2023-02-01T16:51:14;7.50;99.90
1225;DHT22;602;48.000;7.840;2023-02-01T16:53:43;7.50;99.90
1225;DHT22;602;48.000;7.840;2023-02-01T16:56:15;7.50;99.90
1225;DHT22;602;48.000;7.840;2023-02-01T16:58:43;7.50;99.90
1225;DHT22;602;48.000;7.840;2023-02-01T17:01:10;7.50;99.90
1225;DHT22;602;48.000;7.840;2023-02-01T17:03:38;7.50;99.90
1225;DHT22;602;48.000;7.840;2023-02-01T17:06:08;7.50;99.90
1225;DHT22;602;48.000;7.840;2023-02-01T17:08:38;7.50;99.90
1225;DHT22;602;48.000;7.840;2023-02-01T17:11:10;7.60;99.90
1225;DHT22;602;48.000;7.840;2023-02-01T17:13:39;7.60;99.90
1225;DHT22;602;48.000;7.840;2023-02-01T17:16:21;7.60;99.90
1225;DHT22;602;48.000;7.840;2023-02-01T17:18:56;7.60;99.90
1225;DHT22;602;48.000;7.840;2023-02-01T17:21:25;7.50;99.90
1225;DHT22;602;48.000;7.840;2023-02-01T17:23:52;7.50;99.90
1225;DHT22;602;48.000;7.840;2023-02-01T17:26:20;7.50;99.90
1225;DHT22;602;48.000;7.840;2023-02-01T17:28:48;7.50;99.90